Jonesville, VA

6:23 AM EDT on September 26, 2017 (GMT -0400)
Jonesville

Weather History for K0VG - November, 2013

Change the Weather History Date:

Wednesday, November 20, 2013

  Actual Average (KLNP) Record (KLNP)
Temperature  
Mean Temperature 40 °F -  
Max Temperature 53 °F 51 °F 64 °F (1999)
Min Temperature 28 °F 34 °F 21 °F (2000)
Degree Days  
Heating Degree Days 24    
Moisture  
Dew Point 27 °F    
Average Humidity 60    
Maximum Humidity 100    
Minimum Humidity 33    
Precipitation  
Precipitation 0.00 in - - ()
Sea Level Pressure  
Sea Level Pressure 30.29 in    
Wind  
Wind Speed 3 mph (ENE)    
Max Wind Speed 9 mph    
Max Gust Speed -    
Visibility 10 miles    
Events      
Averages and records for this station are not official NWS values.
T = Trace of Precipitation, MM = Missing Value Source: NWS Daily Summary

Daily Weather History Graph

Daily Weather History Graph

Search for Another Location

Airport or City:

Trip Planner

Search our weather history database for the weather conditions in past years. The results will help you decide how hot, cold, wet, or windy it might be!

Date:

Astronomy

Nov. 20, 2013 Rise Set
Actual Time 7:16 AM EST 5:20 PM EST
Civil Twilight 6:48 AM EST 5:48 PM EST
Nautical Twilight 6:16 AM EST 6:20 PM EST
Astronomical Twilight 5:45 AM EST 6:50 PM EST
Moon 8:02 PM EST (11/20) 9:40 AM EST (11/20)
Length of Visible Light 11h 00m
Length of Day
10h 04m
Waning Gibbous, 91% of the Moon is Illuminated
Nov 20
Waning Gibbous
Nov 25
Last Quarter
Dec 2
New
Dec 9
First Quarter
Dec 17
Full

Hourly Weather History & Observations

Time (EST) Temp. Windchill Dew Point Humidity Pressure Visibility Wind Dir Wind Speed Gust Speed Precip Events Conditions
12:15 AM - - - N/A% - 10.0 mi ENE 5.8 mph - N/A   Unknown
12:35 AM 37.4 °F 34.9 °F 26.6 °F 65% 30.23 in 10.0 mi East 3.5 mph - N/A   Unknown
12:55 AM 37.4 °F 32.8 °F 26.6 °F 65% 30.22 in - ENE 5.8 mph - N/A   Unknown
1:35 AM 37.4 °F - 26.6 °F 65% 30.24 in 10.0 mi Calm Calm - N/A   Unknown
1:55 AM 37.4 °F - 28.4 °F 70% 30.24 in 10.0 mi Calm Calm - N/A   Unknown
2:15 AM 37.4 °F - 26.6 °F 65% 30.23 in 10.0 mi Calm Calm - N/A   Unknown
2:35 AM 37.4 °F - 26.6 °F 65% 30.24 in 10.0 mi North - - N/A   Unknown
3:15 AM 35.6 °F - 26.6 °F 70% 30.25 in 10.0 mi Calm Calm - N/A   Unknown
3:35 AM 32.0 °F - 28.4 °F 87% 30.25 in 10.0 mi Calm Calm - N/A   Unknown
3:55 AM - - - N/A% - 10.0 mi Calm Calm - N/A   Unknown
4:35 AM - - - N/A% - 10.0 mi Calm Calm - N/A   Unknown
4:55 AM 30.2 °F - 26.6 °F 86% 30.26 in 10.0 mi Calm Calm - N/A   Unknown
5:15 AM 32.0 °F - 28.4 °F 87% 30.27 in 10.0 mi Calm Calm - N/A   Unknown
5:45 AM 28.4 °F - 28.4 °F 100% 30.27 in 10.0 mi Calm Calm - N/A   Unknown
5:46 AM 28.4 °F - 28.4 °F 100% 30.27 in 10.0 mi Calm Calm - N/A   Unknown
5:55 AM 30.2 °F - 28.4 °F 93% 30.28 in 10.0 mi Calm Calm - N/A   Unknown
6:15 AM 28.4 °F - 26.6 °F 93% - 10.0 mi Calm Calm - N/A   Unknown
6:35 AM 28.4 °F - 26.6 °F 93% 30.30 in 10.0 mi Calm Calm - N/A   Unknown
6:55 AM 28.4 °F - 26.6 °F 93% 30.31 in 10.0 mi Calm Calm - N/A   Unknown
7:15 AM 28.4 °F - 26.6 °F 93% 30.31 in 10.0 mi Calm Calm - N/A   Unknown
7:55 AM 32.0 °F 27.5 °F 26.6 °F 80% 30.33 in 10.0 mi NNE 4.6 mph - N/A   Clear
8:15 AM 35.6 °F 32.8 °F 26.6 °F 70% 30.33 in 10.0 mi ENE 3.5 mph - N/A   Clear
8:55 AM 41.0 °F 35.8 °F 26.6 °F 57% 30.34 in 10.0 mi East 8.1 mph - N/A   Clear
9:35 AM 44.6 °F 39.7 °F 24.8 °F 46% 30.35 in 10.0 mi East 9.2 mph - N/A   Clear
9:55 AM 44.6 °F 39.7 °F 24.8 °F 46% 30.35 in 10.0 mi ENE 9.2 mph - N/A   Clear
10:25 AM 46.4 °F 42.4 °F 26.6 °F 46% 30.36 in 10.0 mi East 8.1 mph - N/A   Clear
10:26 AM 46.4 °F 42.4 °F 26.6 °F 46% 30.36 in 10.0 mi East 8.1 mph - N/A   Clear
10:55 AM 46.4 °F 41.9 °F 26.6 °F 46% 30.35 in 10.0 mi East 9.2 mph - N/A   Clear
11:15 AM 46.4 °F 42.9 °F 24.8 °F 43% 30.34 in 10.0 mi East 6.9 mph - N/A   Clear
11:35 AM - - - N/A% 30.34 in 10.0 mi North - - N/A   Unknown
11:55 AM 48.2 °F - 24.8 °F 40% 30.33 in 10.0 mi ENE 5.8 mph - N/A   Clear
12:15 PM 48.2 °F - 24.8 °F 40% 30.32 in 10.0 mi East 5.8 mph - N/A   Clear
12:35 PM 50.0 °F - 24.8 °F 37% 30.30 in 10.0 mi ESE 3.5 mph - N/A   Clear
12:55 PM 50.0 °F - 24.8 °F 37% 30.30 in - ENE 5.8 mph - N/A   Clear
1:15 PM 51.8 °F - 24.8 °F 35% 30.30 in 10.0 mi NE 5.8 mph - N/A   Unknown
1:35 PM 51.8 °F - 24.8 °F 35% 30.30 in 10.0 mi ESE 5.8 mph - N/A   Clear
1:55 PM 53.6 °F - 24.8 °F 33% 30.29 in 10.0 mi East 6.9 mph - N/A   Clear
2:15 PM 53.6 °F - 24.8 °F 33% 30.28 in 10.0 mi Calm Calm - N/A   Clear
2:35 PM 53.6 °F - 24.8 °F 33% 30.27 in 10.0 mi East 4.6 mph - N/A   Clear
2:55 PM 53.6 °F - 24.8 °F 33% 30.26 in 10.0 mi East 6.9 mph - N/A   Clear
3:15 PM 53.6 °F - 24.8 °F 33% 30.26 in 10.0 mi East 6.9 mph - N/A   Clear
3:35 PM 53.6 °F - 24.8 °F 33% 30.26 in 10.0 mi East 5.8 mph - N/A   Clear
3:55 PM 53.6 °F - 24.8 °F 33% 30.26 in 10.0 mi ESE 3.5 mph - N/A   Clear
4:15 PM 53.6 °F - 24.8 °F 33% 30.26 in 10.0 mi SSE 3.5 mph - N/A   Clear
4:35 PM 53.6 °F - 24.8 °F 33% 30.27 in 10.0 mi Calm Calm - N/A   Clear
4:55 PM 53.6 °F - 24.8 °F 33% 30.27 in 10.0 mi Calm Calm - N/A   Clear
5:15 PM 50.0 °F - 26.6 °F 40% 30.27 in 10.0 mi Calm Calm - N/A   Unknown
5:35 PM 46.4 °F - 26.6 °F 46% 30.27 in 10.0 mi Calm Calm - N/A   Unknown
5:55 PM 44.6 °F - 26.6 °F 49% 30.27 in 10.0 mi Calm Calm - N/A   Unknown
6:15 PM 42.8 °F - 28.4 °F 57% 30.28 in 10.0 mi Calm Calm - N/A   Unknown
6:35 PM 41.0 °F - 28.4 °F 61% 30.28 in 10.0 mi Calm Calm - N/A   Unknown
6:55 PM 39.2 °F - 28.4 °F 65% 30.28 in 10.0 mi Calm Calm - N/A   Unknown
7:15 PM 39.2 °F - 28.4 °F 65% 30.28 in 10.0 mi Calm Calm - N/A   Unknown
7:35 PM 37.4 °F - 28.4 °F 70% 30.29 in 10.0 mi Calm Calm - N/A   Unknown
7:55 PM 37.4 °F - 28.4 °F 70% 30.29 in 10.0 mi Calm Calm - N/A   Unknown
8:15 PM 35.6 °F - 28.4 °F 75% 30.30 in 10.0 mi Calm Calm - N/A   Unknown
8:35 PM 33.8 °F - 28.4 °F 81% 30.30 in 10.0 mi Calm Calm - N/A   Unknown
8:55 PM 35.6 °F 31.7 °F 28.4 °F 75% 30.30 in 10.0 mi NE 4.6 mph - N/A   Unknown
9:15 PM 35.6 °F - 28.4 °F 75% 30.31 in 10.0 mi Calm Calm - N/A   Unknown
9:35 PM 37.4 °F - 28.4 °F 70% 30.32 in 10.0 mi Calm Calm - N/A   Unknown
9:55 PM 37.4 °F - 26.6 °F 65% 30.32 in 10.0 mi Calm Calm - N/A   Unknown
10:15 PM 37.4 °F - 28.4 °F 70% 30.32 in 10.0 mi Calm Calm - N/A   Unknown
10:35 PM 37.4 °F - 26.6 °F 65% 30.33 in 10.0 mi Calm Calm - N/A   Unknown
10:55 PM 37.4 °F 32.8 °F 26.6 °F 65% 30.33 in 10.0 mi NE 5.8 mph - N/A   Unknown
11:15 PM 39.2 °F 35.9 °F 26.6 °F 61% 30.34 in 10.0 mi NE 4.6 mph - N/A   Unknown
11:35 PM 37.4 °F - 26.6 °F 65% 30.34 in 10.0 mi Calm Calm - N/A   Unknown
11:55 PM 39.2 °F 35.9 °F 26.6 °F 61% 30.34 in 10.0 mi NE 4.6 mph - N/A   Unknown